sensor_id;sensor_type;location;lat;lon;timestamp;pressure;altitude;pressure_sealevel;temperature;humidity
65151;BME280;51918;51.856;0.150;2023-04-25T00:01:50;100582.63;;;4.06;71.29
65151;BME280;51918;51.856;0.150;2023-04-25T00:06:51;100598.59;;;3.97;71.52
65151;BME280;51918;51.856;0.150;2023-04-25T00:11:52;100609.56;;;3.86;71.69
65151;BME280;51918;51.856;0.150;2023-04-25T00:16:54;100613.97;;;3.73;71.99
65151;BME280;51918;51.856;0.150;2023-04-25T00:21:54;100613.81;;;3.63;71.85
65151;BME280;51918;51.856;0.150;2023-04-25T00:26:55;100614.75;;;3.51;71.54
65151;BME280;51918;51.856;0.150;2023-04-25T00:31:57;100626.06;;;3.47;72.29
65151;BME280;51918;51.856;0.150;2023-04-25T00:36:58;100616.34;;;3.41;72.39
65151;BME280;51918;51.856;0.150;2023-04-25T00:42:00;100613.88;;;3.28;72.13
65151;BME280;51918;51.856;0.150;2023-04-25T00:47:02;100613.44;;;3.23;72.56
65151;BME280;51918;51.856;0.150;2023-04-25T00:52:03;100620.66;;;3.16;72.49
65151;BME280;51918;51.856;0.150;2023-04-25T00:57:04;100611.75;;;3.10;72.78
65151;BME280;51918;51.856;0.150;2023-04-25T01:02:06;100623.97;;;3.05;72.48
65151;BME280;51918;51.856;0.150;2023-04-25T01:07:07;100626.16;;;2.99;72.79
65151;BME280;51918;51.856;0.150;2023-04-25T01:12:08;100621.72;;;2.89;72.74
65151;BME280;51918;51.856;0.150;2023-04-25T01:17:10;100629.78;;;2.83;73.17
65151;BME280;51918;51.856;0.150;2023-04-25T01:22:12;100636.22;;;2.76;72.90
65151;BME280;51918;51.856;0.150;2023-04-25T01:27:14;100633.31;;;2.69;72.96
65151;BME280;51918;51.856;0.150;2023-04-25T01:32:14;100630.25;;;2.64;73.15
65151;BME280;51918;51.856;0.150;2023-04-25T01:37:17;100636.59;;;2.59;73.39
65151;BME280;51918;51.856;0.150;2023-04-25T01:42:19;100636.78;;;2.56;73.65
65151;BME280;51918;51.856;0.150;2023-04-25T01:47:19;100637.34;;;2.48;73.51
65151;BME280;51918;51.856;0.150;2023-04-25T01:52:21;100653.09;;;2.40;73.85
65151;BME280;51918;51.856;0.150;2023-04-25T01:57:22;100651.69;;;2.36;73.93
65151;BME280;51918;51.856;0.150;2023-04-25T02:02:22;100655.34;;;2.32;73.83
65151;BME280;51918;51.856;0.150;2023-04-25T02:07:26;100651.38;;;2.28;74.33
65151;BME280;51918;51.856;0.150;2023-04-25T02:12:27;100659.31;;;2.23;74.14
65151;BME280;51918;51.856;0.150;2023-04-25T02:17:27;100657.00;;;2.20;74.93
65151;BME280;51918;51.856;0.150;2023-04-25T02:22:29;100655.66;;;2.15;74.66
65151;BME280;51918;51.856;0.150;2023-04-25T02:27:30;100658.84;;;2.05;74.30
65151;BME280;51918;51.856;0.150;2023-04-25T02:32:31;100662.69;;;1.98;74.62
65151;BME280;51918;51.856;0.150;2023-04-25T02:37:34;100662.19;;;1.93;74.48
65151;BME280;51918;51.856;0.150;2023-04-25T02:42:34;100667.47;;;1.90;74.93
65151;BME280;51918;51.856;0.150;2023-04-25T02:47:35;100661.06;;;1.84;74.88
65151;BME280;51918;51.856;0.150;2023-04-25T02:52:37;100663.00;;;1.81;75.29
65151;BME280;51918;51.856;0.150;2023-04-25T02:57:38;100673.66;;;1.73;74.73
65151;BME280;51918;51.856;0.150;2023-04-25T03:02:38;100669.69;;;1.69;74.69
65151;BME280;51918;51.856;0.150;2023-04-25T03:07:40;100670.09;;;1.63;75.44
65151;BME280;51918;51.856;0.150;2023-04-25T03:12:41;100665.09;;;1.61;75.18
65151;BME280;51918;51.856;0.150;2023-04-25T03:17:41;100665.53;;;1.55;75.62
65151;BME280;51918;51.856;0.150;2023-04-25T03:22:44;100672.59;;;1.50;75.68
65151;BME280;51918;51.856;0.150;2023-04-25T03:27:44;100676.44;;;1.43;75.68
65151;BME280;51918;51.856;0.150;2023-04-25T03:32:45;100680.09;;;1.39;75.95
65151;BME280;51918;51.856;0.150;2023-04-25T03:37:47;100681.28;;;1.33;75.86
65151;BME280;51918;51.856;0.150;2023-04-25T03:42:47;100690.91;;;1.28;75.91
65151;BME280;51918;51.856;0.150;2023-04-25T03:47:48;100689.56;;;1.22;76.23
65151;BME280;51918;51.856;0.150;2023-04-25T03:52:50;100700.78;;;1.18;76.55
65151;BME280;51918;51.856;0.150;2023-04-25T03:57:50;100699.28;;;1.16;76.77
65151;BME280;51918;51.856;0.150;2023-04-25T04:02:51;100698.66;;;1.12;76.53
65151;BME280;51918;51.856;0.150;2023-04-25T04:07:53;100702.31;;;1.08;76.71
65151;BME280;51918;51.856;0.150;2023-04-25T04:12:54;100713.53;;;1.04;76.89
65151;BME280;51918;51.856;0.150;2023-04-25T04:17:54;100709.66;;;0.98;76.23
65151;BME280;51918;51.856;0.150;2023-04-25T04:22:56;100706.38;;;0.96;77.17
65151;BME280;51918;51.856;0.150;2023-04-25T04:27:57;100720.88;;;0.94;77.24
65151;BME280;51918;51.856;0.150;2023-04-25T04:32:58;100720.25;;;0.91;76.99
65151;BME280;51918;51.856;0.150;2023-04-25T04:38:00;100731.28;;;0.90;77.34
65151;BME280;51918;51.856;0.150;2023-04-25T04:43:01;100736.44;;;0.88;77.60
65151;BME280;51918;51.856;0.150;2023-04-25T04:48:02;100745.84;;;0.86;77.76
65151;BME280;51918;51.856;0.150;2023-04-25T04:53:04;100751.03;;;0.84;77.77
65151;BME280;51918;51.856;0.150;2023-04-25T04:58:04;100764.41;;;0.86;77.83
65151;BME280;51918;51.856;0.150;2023-04-25T05:03:05;100759.06;;;0.91;77.88
65151;BME280;51918;51.856;0.150;2023-04-25T05:08:07;100767.47;;;0.92;78.04
65151;BME280;51918;51.856;0.150;2023-04-25T05:13:08;100771.50;;;0.94;78.06
65151;BME280;51918;51.856;0.150;2023-04-25T05:18:08;100779.56;;;1.01;77.93
65151;BME280;51918;51.856;0.150;2023-04-25T05:23:13;100784.38;;;1.05;78.22
65151;BME280;51918;51.856;0.150;2023-04-25T05:28:14;100786.63;;;1.10;79.49
65151;BME280;51918;51.856;0.150;2023-04-25T05:33:14;100792.91;;;1.17;79.02
65151;BME280;51918;51.856;0.150;2023-04-25T05:38:16;100797.41;;;1.26;79.13
65151;BME280;51918;51.856;0.150;2023-04-25T05:43:17;100797.84;;;1.33;79.21
65151;BME280;51918;51.856;0.150;2023-04-25T05:48:18;100799.00;;;1.42;79.35
65151;BME280;51918;51.856;0.150;2023-04-25T05:53:20;100815.34;;;1.51;79.62
65151;BME280;51918;51.856;0.150;2023-04-25T05:58:21;100830.53;;;1.65;79.38
65151;BME280;51918;51.856;0.150;2023-04-25T06:03:22;100829.84;;;1.76;79.21
65151;BME280;51918;51.856;0.150;2023-04-25T06:08:24;100844.47;;;1.85;79.60
65151;BME280;51918;51.856;0.150;2023-04-25T06:13:24;100835.50;;;1.94;80.36
65151;BME280;51918;51.856;0.150;2023-04-25T06:18:25;100840.56;;;2.06;80.79
65151;BME280;51918;51.856;0.150;2023-04-25T06:23:27;100846.81;;;2.28;81.04
65151;BME280;51918;51.856;0.150;2023-04-25T06:28:28;100855.06;;;2.57;83.13
65151;BME280;51918;51.856;0.150;2023-04-25T06:33:28;100851.56;;;3.09;84.10
65151;BME280;51918;51.856;0.150;2023-04-25T06:38:30;100849.69;;;3.61;82.82
65151;BME280;51918;51.856;0.150;2023-04-25T06:43:31;100853.00;;;3.99;81.30
65151;BME280;51918;51.856;0.150;2023-04-25T06:48:32;100854.09;;;4.19;79.38
65151;BME280;51918;51.856;0.150;2023-04-25T06:53:34;100863.16;;;4.34;78.29
65151;BME280;51918;51.856;0.150;2023-04-25T06:58:34;100864.38;;;4.97;77.03
65151;BME280;51918;51.856;0.150;2023-04-25T07:03:35;100846.97;;;5.69;74.84
65151;BME280;51918;51.856;0.150;2023-04-25T07:08:37;100857.38;;;6.51;72.72
65151;BME280;51918;51.856;0.150;2023-04-25T07:13:37;100859.59;;;7.47;71.63
65151;BME280;51918;51.856;0.150;2023-04-25T07:18:38;100876.13;;;8.50;69.24
65151;BME280;51918;51.856;0.150;2023-04-25T07:23:40;100888.88;;;9.52;64.95
65151;BME280;51918;51.856;0.150;2023-04-25T07:28:41;100896.72;;;10.40;59.33
65151;BME280;51918;51.856;0.150;2023-04-25T07:33:41;100897.47;;;11.36;58.06
65151;BME280;51918;51.856;0.150;2023-04-25T07:38:43;100893.50;;;12.48;54.65
65151;BME280;51918;51.856;0.150;2023-04-25T07:43:44;100899.94;;;13.39;50.60
65151;BME280;51918;51.856;0.150;2023-04-25T07:48:45;100896.69;;;14.29;48.35
65151;BME280;51918;51.856;0.150;2023-04-25T07:53:47;100901.97;;;15.10;46.00
65151;BME280;51918;51.856;0.150;2023-04-25T07:58:48;100913.28;;;15.82;44.76
65151;BME280;51918;51.856;0.150;2023-04-25T08:03:48;100916.03;;;16.58;43.08
65151;BME280;51918;51.856;0.150;2023-04-25T08:08:51;100923.31;;;17.31;41.91
65151;BME280;51918;51.856;0.150;2023-04-25T08:13:51;100927.84;;;18.04;40.85
65151;BME280;51918;51.856;0.150;2023-04-25T08:18:52;100917.34;;;18.71;39.68
65151;BME280;51918;51.856;0.150;2023-04-25T08:23:54;100937.97;;;19.24;38.33
65151;BME280;51918;51.856;0.150;2023-04-25T08:28:55;100947.63;;;19.87;37.06
65151;BME280;51918;51.856;0.150;2023-04-25T08:33:56;100947.84;;;20.54;35.73
65151;BME280;51918;51.856;0.150;2023-04-25T08:38:58;100937.19;;;21.11;34.97
65151;BME280;51918;51.856;0.150;2023-04-25T08:43:59;100958.19;;;21.65;33.83
65151;BME280;51918;51.856;0.150;2023-04-25T08:49:02;100952.31;;;22.28;32.01
65151;BME280;51918;51.856;0.150;2023-04-25T08:54:09;100942.31;;;22.89;31.11
65151;BME280;51918;51.856;0.150;2023-04-25T08:59:10;100952.44;;;23.55;31.10
65151;BME280;51918;51.856;0.150;2023-04-25T09:04:11;100953.34;;;23.94;28.50
65151;BME280;51918;51.856;0.150;2023-04-25T09:09:13;100956.38;;;24.03;27.42
65151;BME280;51918;51.856;0.150;2023-04-25T09:14:15;100961.34;;;24.22;29.04
65151;BME280;51918;51.856;0.150;2023-04-25T09:19:21;100956.91;;;24.61;28.00
65151;BME280;51918;51.856;0.150;2023-04-25T09:24:35;100962.81;;;24.73;26.57
65151;BME280;51918;51.856;0.150;2023-04-25T09:29:37;100958.31;;;24.52;26.89
65151;BME280;51918;51.856;0.150;2023-04-25T09:34:39;100960.91;;;24.08;25.31
65151;BME280;51918;51.856;0.150;2023-04-25T09:39:44;100956.81;;;23.83;26.70
65151;BME280;51918;51.856;0.150;2023-04-25T09:44:46;100948.13;;;24.55;25.93
65151;BME280;51918;51.856;0.150;2023-04-25T09:49:47;100962.66;;;25.07;26.25
65151;BME280;51918;51.856;0.150;2023-04-25T09:54:50;100949.53;;;25.67;24.97
65151;BME280;51918;51.856;0.150;2023-04-25T09:59:54;100944.72;;;26.38;23.60
65151;BME280;51918;51.856;0.150;2023-04-25T10:04:55;100944.19;;;27.10;23.88
65151;BME280;51918;51.856;0.150;2023-04-25T10:09:59;100934.16;;;27.63;26.27
65151;BME280;51918;51.856;0.150;2023-04-25T10:15:01;100941.06;;;27.69;22.96
65151;BME280;51918;51.856;0.150;2023-04-25T10:20:03;100942.09;;;27.78;20.82
65151;BME280;51918;51.856;0.150;2023-04-25T10:25:06;100938.41;;;27.69;22.39
65151;BME280;51918;51.856;0.150;2023-04-25T10:30:09;100938.41;;;27.38;21.44
65151;BME280;51918;51.856;0.150;2023-04-25T10:35:12;100939.56;;;26.64;21.01
65151;BME280;51918;51.856;0.150;2023-04-25T10:40:21;100955.06;;;26.03;22.97
65151;BME280;51918;51.856;0.150;2023-04-25T10:45:22;100945.00;;;26.47;23.03
65151;BME280;51918;51.856;0.150;2023-04-25T10:50:37;100940.97;;;27.08;22.31
65151;BME280;51918;51.856;0.150;2023-04-25T10:55:50;100932.31;;;27.94;21.67
65151;BME280;51918;51.856;0.150;2023-04-25T11:00:51;100938.88;;;28.02;22.20
65151;BME280;51918;51.856;0.150;2023-04-25T11:05:52;100935.13;;;28.18;20.03
65151;BME280;51918;51.856;0.150;2023-04-25T11:10:55;100944.28;;;28.52;21.46
65151;BME280;51918;51.856;0.150;2023-04-25T11:15:55;100936.22;;;28.77;18.39
65151;BME280;51918;51.856;0.150;2023-04-25T11:20:56;100938.66;;;27.83;18.14
65151;BME280;51918;51.856;0.150;2023-04-25T11:25:58;100941.50;;;27.05;19.63
65151;BME280;51918;51.856;0.150;2023-04-25T11:30:59;100947.50;;;26.69;19.69
65151;BME280;51918;51.856;0.150;2023-04-25T11:36:00;100952.31;;;26.25;18.68
65151;BME280;51918;51.856;0.150;2023-04-25T11:41:02;100944.06;;;25.73;20.63
65151;BME280;51918;51.856;0.150;2023-04-25T11:46:06;100931.97;;;25.83;22.17
65151;BME280;51918;51.856;0.150;2023-04-25T11:51:07;100935.97;;;26.28;20.54
65151;BME280;51918;51.856;0.150;2023-04-25T11:56:10;100928.81;;;26.23;20.48
65151;BME280;51918;51.856;0.150;2023-04-25T12:01:11;100935.41;;;26.21;21.35
65151;BME280;51918;51.856;0.150;2023-04-25T12:06:16;100941.34;;;26.01;20.34
65151;BME280;51918;51.856;0.150;2023-04-25T12:11:22;100945.38;;;25.76;19.63
65151;BME280;51918;51.856;0.150;2023-04-25T12:16:22;100945.41;;;25.44;19.21
65151;BME280;51918;51.856;0.150;2023-04-25T12:21:23;100947.03;;;24.95;21.66
65151;BME280;51918;51.856;0.150;2023-04-25T12:26:25;100953.31;;;24.67;20.53
65151;BME280;51918;51.856;0.150;2023-04-25T12:31:26;100958.91;;;24.37;21.53
65151;BME280;51918;51.856;0.150;2023-04-25T12:36:27;100967.56;;;24.15;21.21
65151;BME280;51918;51.856;0.150;2023-04-25T12:41:29;100966.44;;;23.61;21.50
65151;BME280;51918;51.856;0.150;2023-04-25T12:46:30;100958.22;;;23.23;22.28
65151;BME280;51918;51.856;0.150;2023-04-25T12:51:30;100960.69;;;22.89;22.02
65151;BME280;51918;51.856;0.150;2023-04-25T12:56:32;100957.06;;;22.79;21.94
65151;BME280;51918;51.856;0.150;2023-04-25T13:01:33;100942.47;;;22.71;23.36
65151;BME280;51918;51.856;0.150;2023-04-25T13:06:34;100951.38;;;23.10;22.30
65151;BME280;51918;51.856;0.150;2023-04-25T13:11:36;100958.25;;;23.57;21.73
65151;BME280;51918;51.856;0.150;2023-04-25T13:16:36;100954.59;;;23.58;21.17
65151;BME280;51918;51.856;0.150;2023-04-25T13:21:37;100963.66;;;23.50;20.83
65151;BME280;51918;51.856;0.150;2023-04-25T13:26:39;100958.91;;;23.64;22.37
65151;BME280;51918;51.856;0.150;2023-04-25T13:31:39;100959.16;;;23.80;21.03
65151;BME280;51918;51.856;0.150;2023-04-25T13:36:40;100966.06;;;23.86;22.50
65151;BME280;51918;51.856;0.150;2023-04-25T13:41:42;100962.00;;;24.12;21.46
65151;BME280;51918;51.856;0.150;2023-04-25T13:46:43;100967.28;;;24.12;22.50
65151;BME280;51918;51.856;0.150;2023-04-25T13:51:44;100965.69;;;23.94;21.95
65151;BME280;51918;51.856;0.150;2023-04-25T13:56:46;100972.59;;;23.66;20.31
65151;BME280;51918;51.856;0.150;2023-04-25T14:01:46;100963.88;;;23.32;21.29
65151;BME280;51918;51.856;0.150;2023-04-25T14:06:47;100960.97;;;23.05;20.81
65151;BME280;51918;51.856;0.150;2023-04-25T14:11:49;100969.22;;;22.97;21.42
65151;BME280;51918;51.856;0.150;2023-04-25T14:16:50;100955.47;;;22.78;21.34
65151;BME280;51918;51.856;0.150;2023-04-25T14:21:51;100965.09;;;23.01;22.47
65151;BME280;51918;51.856;0.150;2023-04-25T14:26:53;100963.19;;;22.96;21.32
65151;BME280;51918;51.856;0.150;2023-04-25T14:31:53;100970.41;;;22.89;21.42
65151;BME280;51918;51.856;0.150;2023-04-25T14:36:54;100975.81;;;22.59;21.79
65151;BME280;51918;51.856;0.150;2023-04-25T14:41:56;100973.06;;;22.30;21.96
65151;BME280;51918;51.856;0.150;2023-04-25T14:46:57;100985.94;;;21.66;21.83
65151;BME280;51918;51.856;0.150;2023-04-25T14:51:57;100973.22;;;21.09;22.80
65151;BME280;51918;51.856;0.150;2023-04-25T14:56:59;100972.47;;;20.65;23.08
65151;BME280;51918;51.856;0.150;2023-04-25T15:02:00;100967.66;;;20.25;22.75
65151;BME280;51918;51.856;0.150;2023-04-25T15:07:01;100978.22;;;19.80;23.09
65151;BME280;51918;51.856;0.150;2023-04-25T15:12:03;100980.44;;;19.38;24.11
65151;BME280;51918;51.856;0.150;2023-04-25T15:17:04;100974.97;;;19.07;24.86
65151;BME280;51918;51.856;0.150;2023-04-25T15:22:04;100967.81;;;18.90;24.61
65151;BME280;51918;51.856;0.150;2023-04-25T15:27:06;100968.63;;;18.83;24.20
65151;BME280;51918;51.856;0.150;2023-04-25T15:32:07;100963.03;;;18.86;23.85
65151;BME280;51918;51.856;0.150;2023-04-25T15:37:08;100962.59;;;18.90;23.66
65151;BME280;51918;51.856;0.150;2023-04-25T15:42:10;100957.97;;;18.92;24.57
65151;BME280;51918;51.856;0.150;2023-04-25T15:47:10;100955.97;;;18.94;25.31
65151;BME280;51918;51.856;0.150;2023-04-25T15:52:11;100962.69;;;18.63;24.82
65151;BME280;51918;51.856;0.150;2023-04-25T15:57:13;100958.84;;;18.45;25.07
65151;BME280;51918;51.856;0.150;2023-04-25T16:02:14;100959.50;;;18.21;25.54
65151;BME280;51918;51.856;0.150;2023-04-25T16:07:14;100956.69;;;18.02;26.28
65151;BME280;51918;51.856;0.150;2023-04-25T16:12:16;100946.06;;;17.97;26.14
65151;BME280;51918;51.856;0.150;2023-04-25T16:17:17;100950.28;;;18.12;26.61
65151;BME280;51918;51.856;0.150;2023-04-25T16:22:18;100944.66;;;18.08;26.54
65151;BME280;51918;51.856;0.150;2023-04-25T16:27:20;100939.88;;;17.98;25.80
65151;BME280;51918;51.856;0.150;2023-04-25T16:32:20;100944.59;;;17.61;24.98
65151;BME280;51918;51.856;0.150;2023-04-25T16:37:23;100947.03;;;17.01;26.86
65151;BME280;51918;51.856;0.150;2023-04-25T16:42:26;100945.00;;;16.34;26.92
65151;BME280;51918;51.856;0.150;2023-04-25T16:47:26;100939.59;;;16.29;27.22
65151;BME280;51918;51.856;0.150;2023-04-25T16:52:27;100957.50;;;15.23;27.89
65151;BME280;51918;51.856;0.150;2023-04-25T16:57:29;100958.97;;;14.95;28.17
65151;BME280;51918;51.856;0.150;2023-04-25T17:02:30;100949.41;;;14.96;29.34
65151;BME280;51918;51.856;0.150;2023-04-25T17:07:31;100949.16;;;14.91;29.16
65151;BME280;51918;51.856;0.150;2023-04-25T17:12:33;100949.66;;;14.86;28.99
65151;BME280;51918;51.856;0.150;2023-04-25T17:17:33;100949.13;;;14.76;29.08
65151;BME280;51918;51.856;0.150;2023-04-25T17:22:34;100944.84;;;14.30;29.25
65151;BME280;51918;51.856;0.150;2023-04-25T17:27:37;100942.00;;;14.25;29.27
65151;BME280;51918;51.856;0.150;2023-04-25T17:32:38;100949.19;;;14.15;29.48
65151;BME280;51918;51.856;0.150;2023-04-25T17:37:38;100945.25;;;13.81;30.13
65151;BME280;51918;51.856;0.150;2023-04-25T17:42:40;100945.69;;;13.62;30.18
65151;BME280;51918;51.856;0.150;2023-04-25T17:47:41;100946.16;;;13.34;30.30
65151;BME280;51918;51.856;0.150;2023-04-25T17:52:42;100952.41;;;13.40;30.93
65151;BME280;51918;51.856;0.150;2023-04-25T17:57:44;100955.47;;;13.43;30.43
65151;BME280;51918;51.856;0.150;2023-04-25T18:02:44;100957.53;;;13.17;30.28
65151;BME280;51918;51.856;0.150;2023-04-25T18:07:45;100953.50;;;13.14;30.75
65151;BME280;51918;51.856;0.150;2023-04-25T18:12:47;100952.69;;;13.13;30.63
65151;BME280;51918;51.856;0.150;2023-04-25T18:17:48;100951.41;;;13.09;30.65
65151;BME280;51918;51.856;0.150;2023-04-25T18:22:48;100938.00;;;13.14;31.47
65151;BME280;51918;51.856;0.150;2023-04-25T18:27:50;100949.44;;;13.20;31.01
65151;BME280;51918;51.856;0.150;2023-04-25T18:32:51;100944.78;;;13.15;31.33
65151;BME280;51918;51.856;0.150;2023-04-25T18:37:52;100941.09;;;13.01;30.86
65151;BME280;51918;51.856;0.150;2023-04-25T18:42:54;100944.41;;;12.79;31.29
65151;BME280;51918;51.856;0.150;2023-04-25T18:47:55;100936.03;;;12.68;31.01
65151;BME280;51918;51.856;0.150;2023-04-25T18:52:55;100949.28;;;12.41;31.66
65151;BME280;51918;51.856;0.150;2023-04-25T18:57:57;100942.84;;;11.96;32.73
65151;BME280;51918;51.856;0.150;2023-04-25T19:02:58;100941.84;;;11.72;33.29
65151;BME280;51918;51.856;0.150;2023-04-25T19:07:59;100940.09;;;11.72;34.71
65151;BME280;51918;51.856;0.150;2023-04-25T19:13:01;100937.66;;;11.71;34.65
65151;BME280;51918;51.856;0.150;2023-04-25T19:18:02;100943.13;;;11.60;34.97
65151;BME280;51918;51.856;0.150;2023-04-25T19:23:03;100937.41;;;11.40;35.44
65151;BME280;51918;51.856;0.150;2023-04-25T19:28:06;100953.91;;;11.21;36.40
65151;BME280;51918;51.856;0.150;2023-04-25T19:33:06;100965.06;;;10.95;36.30
65151;BME280;51918;51.856;0.150;2023-04-25T19:38:07;100971.22;;;10.50;36.86
65151;BME280;51918;51.856;0.150;2023-04-25T19:43:09;100977.13;;;10.24;37.53
65151;BME280;51918;51.856;0.150;2023-04-25T19:48:10;100979.97;;;10.03;38.46
65151;BME280;51918;51.856;0.150;2023-04-25T19:53:11;100985.47;;;9.91;39.10
65151;BME280;51918;51.856;0.150;2023-04-25T19:58:13;100983.31;;;9.68;39.17
65151;BME280;51918;51.856;0.150;2023-04-25T20:03:14;100995.66;;;9.55;40.33
65151;BME280;51918;51.856;0.150;2023-04-25T20:08:14;100999.94;;;9.36;40.74
65151;BME280;51918;51.856;0.150;2023-04-25T20:13:16;101006.88;;;9.16;41.20
65151;BME280;51918;51.856;0.150;2023-04-25T20:18:17;101011.09;;;9.07;42.10
65151;BME280;51918;51.856;0.150;2023-04-25T20:23:18;101015.47;;;8.97;43.84
65151;BME280;51918;51.856;0.150;2023-04-25T20:28:20;101012.38;;;8.84;44.19
65151;BME280;51918;51.856;0.150;2023-04-25T20:33:21;101002.56;;;8.70;44.60
65151;BME280;51918;51.856;0.150;2023-04-25T20:38:21;101009.47;;;8.50;44.90
65151;BME280;51918;51.856;0.150;2023-04-25T20:43:23;101002.78;;;8.28;45.34
65151;BME280;51918;51.856;0.150;2023-04-25T20:48:24;101016.56;;;8.07;45.48
65151;BME280;51918;51.856;0.150;2023-04-25T20:53:25;101026.88;;;7.96;46.72
65151;BME280;51918;51.856;0.150;2023-04-25T20:58:27;101014.88;;;7.77;46.97
65151;BME280;51918;51.856;0.150;2023-04-25T21:03:27;101022.50;;;7.67;47.19
65151;BME280;51918;51.856;0.150;2023-04-25T21:08:27;101036.22;;;7.56;48.11
65151;BME280;51918;51.856;0.150;2023-04-25T21:13:30;101034.84;;;7.42;48.49
65151;BME280;51918;51.856;0.150;2023-04-25T21:18:30;101044.19;;;7.32;49.69
65151;BME280;51918;51.856;0.150;2023-04-25T21:23:31;101040.09;;;7.20;49.83
65151;BME280;51918;51.856;0.150;2023-04-25T21:28:34;101036.66;;;7.10;50.80
65151;BME280;51918;51.856;0.150;2023-04-25T21:33:35;101044.41;;;6.98;51.12
65151;BME280;51918;51.856;0.150;2023-04-25T21:38:35;101040.75;;;6.91;52.24
65151;BME280;51918;51.856;0.150;2023-04-25T21:43:37;101038.00;;;6.83;52.25
65151;BME280;51918;51.856;0.150;2023-04-25T21:48:38;101038.75;;;6.74;51.61
65151;BME280;51918;51.856;0.150;2023-04-25T21:53:38;101032.03;;;6.61;52.77
65151;BME280;51918;51.856;0.150;2023-04-25T21:58:40;101039.13;;;6.58;52.83
65151;BME280;51918;51.856;0.150;2023-04-25T22:03:41;101038.28;;;6.48;52.97
65151;BME280;51918;51.856;0.150;2023-04-25T22:08:42;101043.06;;;6.41;53.41
65151;BME280;51918;51.856;0.150;2023-04-25T22:13:44;101047.72;;;6.25;53.14
65151;BME280;51918;51.856;0.150;2023-04-25T22:18:44;101053.53;;;6.15;54.11
65151;BME280;51918;51.856;0.150;2023-04-25T22:23:45;101057.25;;;6.11;54.70
65151;BME280;51918;51.856;0.150;2023-04-25T22:28:47;101068.53;;;6.09;55.32
65151;BME280;51918;51.856;0.150;2023-04-25T22:33:47;101068.16;;;6.02;55.20
65151;BME280;51918;51.856;0.150;2023-04-25T22:38:47;101070.97;;;5.99;54.91
65151;BME280;51918;51.856;0.150;2023-04-25T22:43:49;101077.94;;;5.97;55.95
65151;BME280;51918;51.856;0.150;2023-04-25T22:48:50;101076.31;;;5.85;55.82
65151;BME280;51918;51.856;0.150;2023-04-25T22:53:51;101075.41;;;5.74;56.59
65151;BME280;51918;51.856;0.150;2023-04-25T22:58:53;101081.53;;;5.72;57.13
65151;BME280;51918;51.856;0.150;2023-04-25T23:03:53;101075.16;;;5.77;57.31
65151;BME280;51918;51.856;0.150;2023-04-25T23:08:54;101068.31;;;5.78;57.49
65151;BME280;51918;51.856;0.150;2023-04-25T23:13:56;101074.00;;;5.82;58.25
65151;BME280;51918;51.856;0.150;2023-04-25T23:18:56;101069.00;;;5.80;58.07
65151;BME280;51918;51.856;0.150;2023-04-25T23:23:57;101068.91;;;5.82;58.40
65151;BME280;51918;51.856;0.150;2023-04-25T23:28:59;101082.13;;;5.75;58.34
65151;BME280;51918;51.856;0.150;2023-04-25T23:34:00;101093.13;;;5.76;58.78
65151;BME280;51918;51.856;0.150;2023-04-25T23:39:00;101088.28;;;5.73;59.23
65151;BME280;51918;51.856;0.150;2023-04-25T23:44:02;101084.78;;;5.74;60.10
65151;BME280;51918;51.856;0.150;2023-04-25T23:49:03;101086.78;;;5.70;59.40
65151;BME280;51918;51.856;0.150;2023-04-25T23:54:04;101074.22;;;5.67;59.88
65151;BME280;51918;51.856;0.150;2023-04-25T23:59:06;101090.00;;;5.61;59.48
